createdAt,value
2018-03-06T00:01:49.146Z,20.03
2018-03-06T00:04:18.904Z,19.33
2018-03-06T00:06:48.264Z,19.87
2018-03-06T00:09:17.667Z,23.00
2018-03-06T00:11:47.580Z,17.53
2018-03-06T00:14:17.295Z,19.07
2018-03-06T00:16:46.648Z,18.80
2018-03-06T00:19:15.621Z,22.43
2018-03-06T00:21:44.956Z,20.07
2018-03-06T00:24:14.686Z,18.37
2018-03-06T00:26:44.457Z,20.13
2018-03-06T00:29:13.417Z,22.83
2018-03-06T00:31:42.770Z,20.53
2018-03-06T00:34:12.503Z,18.80
2018-03-06T00:36:42.316Z,19.20
2018-03-06T00:39:12.106Z,20.23
2018-03-06T00:41:41.458Z,19.20
2018-03-06T00:44:10.483Z,20.77
2018-03-06T00:46:39.459Z,19.57
2018-03-06T00:49:09.185Z,18.10
2018-03-06T00:51:38.171Z,19.60
2018-03-06T00:54:07.134Z,18.77
2018-03-06T00:56:36.100Z,17.17
2018-03-06T00:59:05.910Z,19.90
2018-03-06T01:01:35.637Z,16.10
2018-03-06T01:04:05.023Z,18.80
2018-03-06T01:06:34.746Z,22.63
2018-03-06T01:09:03.728Z,20.73
2018-03-06T01:11:33.064Z,20.00
2018-03-06T01:14:02.456Z,18.93
2018-03-06T01:16:31.426Z,18.23
2018-03-06T01:19:01.149Z,18.53
2018-03-06T01:21:30.139Z,22.43
2018-03-06T01:23:59.711Z,21.10
2018-03-06T01:26:28.703Z,18.47
2018-03-06T01:28:57.711Z,17.33
2018-03-06T01:31:27.551Z,18.53
2018-03-06T01:33:57.306Z,18.00
2018-03-06T01:36:26.255Z,17.60
2018-03-06T01:38:55.963Z,22.47
2018-03-06T01:41:25.369Z,20.53
2018-03-06T01:43:54.345Z,20.93
2018-03-06T01:46:23.312Z,22.63
2018-03-06T01:48:53.079Z,19.67
2018-03-06T01:51:22.126Z,20.87
2018-03-06T01:53:51.838Z,20.83
2018-03-06T01:56:21.211Z,25.03
2018-03-06T01:58:50.167Z,24.57
2018-03-06T02:01:19.214Z,21.40
2018-03-06T02:03:48.945Z,22.53
2018-03-06T02:06:17.925Z,22.27
2018-03-06T02:08:47.749Z,20.77
2018-03-06T02:11:17.100Z,18.27
2018-03-06T02:13:46.278Z,21.60
2018-03-06T02:16:16.458Z,20.70
2018-03-06T02:18:45.425Z,23.87
2018-03-06T02:21:14.401Z,28.20
2018-03-06T02:23:47.362Z,21.63
2018-03-06T02:26:16.418Z,18.47
2018-03-06T02:28:46.158Z,25.30
2018-03-06T02:31:16.252Z,24.23
2018-03-06T02:33:46.067Z,21.13
2018-03-06T02:36:15.103Z,25.33
2018-03-06T02:38:44.087Z,22.30
2018-03-06T02:41:13.050Z,22.60
2018-03-06T02:43:42.009Z,22.70
2018-03-06T02:46:12.003Z,22.63
2018-03-06T02:48:40.968Z,19.40
2018-03-06T02:51:09.947Z,19.23
2018-03-06T02:53:39.242Z,21.33
2018-03-06T02:56:08.210Z,21.43
2018-03-06T02:58:38.028Z,19.57
2018-03-06T03:01:07.777Z,23.27
2018-03-06T03:03:37.182Z,20.60
2018-03-06T03:06:06.136Z,25.40
2018-03-06T03:08:35.705Z,23.13
2018-03-06T03:11:04.662Z,22.33
2018-03-06T03:13:33.604Z,26.37
2018-03-06T03:16:02.567Z,21.60
2018-03-06T03:18:32.915Z,29.53
2018-03-06T03:21:02.294Z,20.90
2018-03-06T03:23:31.270Z,23.40
2018-03-06T03:26:00.323Z,25.90
2018-03-06T03:28:29.282Z,26.80
2018-03-06T03:30:58.272Z,29.23
2018-03-06T03:33:27.996Z,28.37
2018-03-06T03:35:57.068Z,22.63
2018-03-06T03:38:26.061Z,25.53
2018-03-06T03:40:55.452Z,29.90
2018-03-06T03:43:24.410Z,22.53
2018-03-06T03:45:54.175Z,25.77
2018-03-06T03:48:23.522Z,23.30
2018-03-06T03:50:52.892Z,25.47
2018-03-06T03:53:22.622Z,23.80
2018-03-06T03:55:52.349Z,31.70
2018-03-06T03:58:21.380Z,28.73
2018-03-06T04:00:50.366Z,26.90
2018-03-06T04:03:19.356Z,28.03
2018-03-06T04:05:48.329Z,27.00
2018-03-06T04:08:17.291Z,29.33
2018-03-06T04:10:46.994Z,26.00
2018-03-06T04:13:16.792Z,29.77
2018-03-06T04:15:45.803Z,26.10
2018-03-06T04:18:15.193Z,24.30
2018-03-06T04:20:44.568Z,30.70
2018-03-06T04:23:14.497Z,24.93
2018-03-06T04:25:44.771Z,27.93
2018-03-06T04:28:15.991Z,28.00
2018-03-06T04:30:45.335Z,27.80
2018-03-06T04:33:14.690Z,26.43
2018-03-06T04:35:44.916Z,23.73
2018-03-06T04:38:14.680Z,27.97
2018-03-06T04:40:43.657Z,27.37
2018-03-06T04:43:12.637Z,25.37
2018-03-06T04:45:41.597Z,23.57
2018-03-06T04:48:11.553Z,24.77
2018-03-06T04:50:40.565Z,21.87
2018-03-06T04:53:09.976Z,29.30
2018-03-06T04:55:38.994Z,29.57
2018-03-06T04:58:08.742Z,27.37
2018-03-06T05:00:37.703Z,24.23
2018-03-06T05:03:07.455Z,23.03
2018-03-06T05:05:36.433Z,23.80
2018-03-06T05:08:05.444Z,27.10
2018-03-06T05:10:34.393Z,25.50
2018-03-06T05:13:04.152Z,25.00
2018-03-06T05:15:33.868Z,28.57
2018-03-06T05:18:03.209Z,30.83
2018-03-06T05:20:32.332Z,29.40
2018-03-06T05:23:01.318Z,31.70
2018-03-06T05:25:30.993Z,25.90
2018-03-06T05:27:59.968Z,28.13
2018-03-06T05:30:30.455Z,32.07
2018-03-06T05:32:59.446Z,35.67
2018-03-06T05:35:28.826Z,29.83
2018-03-06T05:37:58.527Z,30.23
2018-03-06T05:40:28.264Z,26.90
2018-03-06T05:42:57.229Z,24.17
2018-03-06T05:45:27.105Z,32.37
2018-03-06T05:47:56.865Z,31.53
2018-03-06T05:50:26.241Z,30.23
2018-03-06T05:52:55.353Z,33.70
2018-03-06T05:55:25.100Z,33.47
2018-03-06T05:57:54.836Z,31.57
2018-03-06T06:00:23.837Z,37.37
2018-03-06T06:02:52.818Z,31.40
2018-03-06T06:05:21.912Z,32.97
2018-03-06T06:07:51.268Z,34.77
2018-03-06T06:10:20.346Z,32.20
2018-03-06T06:12:49.711Z,36.03
2018-03-06T06:15:18.696Z,32.77
2018-03-06T06:17:47.637Z,40.43
2018-03-06T06:20:16.993Z,35.73
2018-03-06T06:22:45.953Z,32.40
2018-03-06T06:25:14.954Z,34.43
2018-03-06T06:27:43.917Z,34.00
2018-03-06T06:30:13.653Z,32.10
2018-03-06T06:32:43.374Z,34.33
2018-03-06T06:35:13.125Z,35.50
2018-03-06T06:37:42.498Z,35.40
2018-03-06T06:40:11.479Z,34.70
2018-03-06T06:42:40.528Z,40.17
2018-03-06T06:45:10.498Z,35.63
2018-03-06T06:47:39.440Z,40.30
2018-03-06T06:50:08.459Z,34.23
2018-03-06T06:52:37.418Z,35.47
2018-03-06T06:55:07.156Z,32.20
2018-03-06T06:57:36.518Z,39.60
2018-03-06T07:00:05.472Z,34.93
2018-03-06T07:02:34.442Z,34.87
2018-03-06T07:05:03.413Z,40.30
2018-03-06T07:07:33.153Z,34.87
2018-03-06T07:10:02.115Z,35.70
2018-03-06T07:12:31.849Z,37.77
2018-03-06T07:15:01.418Z,36.83
2018-03-06T07:17:30.460Z,37.77
2018-03-06T07:19:59.431Z,39.07
2018-03-06T07:22:29.592Z,32.53
2018-03-06T07:24:58.592Z,39.03
2018-03-06T07:27:27.565Z,37.57
2018-03-06T07:29:56.632Z,37.00
2018-03-06T07:32:26.097Z,39.08
2018-03-06T07:34:55.483Z,37.53
2018-03-06T07:37:24.872Z,39.23
2018-03-06T07:39:53.860Z,37.10
2018-03-06T07:42:22.905Z,36.17
2018-03-06T07:44:51.922Z,38.00
2018-03-06T07:47:20.923Z,36.80
2018-03-06T07:49:49.900Z,40.70
2018-03-06T07:52:18.858Z,42.63
2018-03-06T07:54:47.797Z,42.93
2018-03-06T07:57:16.809Z,38.63
2018-03-06T07:59:45.787Z,46.77
2018-03-06T08:02:14.734Z,42.70
2018-03-06T08:04:44.139Z,44.50
2018-03-06T08:07:13.139Z,40.50
2018-03-06T08:09:42.176Z,46.60
2018-03-06T08:12:11.117Z,41.57
2018-03-06T08:14:40.141Z,42.90
2018-03-06T08:17:09.133Z,43.95
2018-03-06T08:19:38.157Z,45.37
2018-03-06T08:22:07.167Z,47.13
2018-03-06T08:24:36.906Z,42.43
2018-03-06T08:27:05.941Z,44.23
2018-03-06T08:29:34.907Z,48.10
2018-03-06T08:32:05.309Z,42.97
2018-03-06T08:34:35.139Z,46.97
2018-03-06T08:37:04.177Z,39.03
2018-03-06T08:39:33.134Z,43.83
2018-03-06T08:42:02.416Z,49.97
2018-03-06T08:44:33.446Z,47.90
2018-03-06T08:47:04.328Z,44.07
2018-03-06T08:49:33.297Z,41.30
2018-03-06T08:52:02.310Z,42.17
2018-03-06T08:54:32.126Z,42.43
2018-03-06T08:57:01.365Z,47.30
2018-03-06T08:59:31.073Z,41.90
2018-03-06T09:02:00.798Z,39.90
2018-03-06T09:04:29.865Z,38.00
2018-03-06T09:06:59.180Z,39.10
2018-03-06T09:09:28.152Z,39.10
2018-03-06T09:11:57.858Z,43.90
2018-03-06T09:14:27.693Z,41.07
2018-03-06T09:16:57.491Z,37.90
2018-03-06T09:19:27.281Z,35.47
2018-03-06T09:21:58.458Z,34.50
2018-03-06T09:24:28.299Z,40.33
2018-03-06T09:26:58.023Z,31.53
2018-03-06T09:29:27.375Z,33.07
2018-03-06T09:31:56.744Z,33.60
2018-03-06T09:34:25.717Z,35.27
2018-03-06T09:36:54.806Z,30.67
2018-03-06T09:39:23.733Z,36.13
2018-03-06T09:41:53.463Z,32.67
2018-03-06T09:44:23.258Z,37.07
2018-03-06T09:46:52.967Z,31.70
2018-03-06T09:49:22.747Z,36.60
2018-03-06T09:51:51.680Z,32.40
2018-03-06T09:54:21.010Z,32.80
2018-03-06T09:56:49.965Z,34.00
2018-03-06T09:59:19.791Z,34.30
2018-03-06T10:01:49.134Z,36.90
2018-03-06T10:04:18.088Z,28.57
2018-03-06T10:06:47.048Z,31.75
2018-03-06T10:09:16.012Z,32.40
2018-03-06T10:11:45.385Z,34.72
2018-03-06T10:14:14.741Z,35.47
2018-03-06T10:16:44.464Z,30.60
2018-03-06T10:19:14.469Z,29.87
2018-03-06T10:21:44.205Z,34.07
2018-03-06T10:24:14.403Z,32.77
2018-03-06T10:26:44.179Z,32.90
2018-03-06T10:29:13.157Z,29.20
2018-03-06T10:31:42.535Z,30.30
2018-03-06T10:34:11.482Z,33.47
2018-03-06T10:36:40.484Z,37.40
2018-03-06T10:39:10.271Z,34.47
2018-03-06T10:41:39.625Z,31.30
2018-03-06T10:44:09.860Z,29.53
2018-03-06T10:46:38.833Z,33.53
2018-03-06T10:49:07.821Z,29.87
2018-03-06T10:51:36.817Z,32.10
2018-03-06T10:54:06.204Z,34.10
2018-03-06T10:56:35.935Z,35.90
2018-03-06T10:59:05.009Z,31.30
2018-03-06T11:01:36.124Z,32.03
2018-03-06T11:04:05.462Z,31.20
2018-03-06T11:06:35.231Z,34.27
2018-03-06T11:09:04.316Z,28.97
2018-03-06T11:11:33.270Z,33.43
2018-03-06T11:14:02.260Z,33.90
2018-03-06T11:16:31.640Z,28.40
2018-03-06T11:19:00.604Z,30.83
2018-03-06T11:21:29.599Z,31.47
2018-03-06T11:23:58.729Z,37.57
2018-03-06T11:26:28.501Z,28.60
2018-03-06T11:28:58.406Z,30.70
2018-03-06T11:31:27.951Z,33.83
2018-03-06T11:33:57.815Z,31.20
2018-03-06T11:36:27.440Z,30.57
2018-03-06T11:38:56.425Z,30.13
2018-03-06T11:41:25.466Z,36.70
2018-03-06T11:43:54.421Z,31.60
2018-03-06T11:46:23.395Z,34.07
2018-03-06T11:48:53.112Z,29.83
2018-03-06T11:51:22.078Z,28.30
2018-03-06T11:53:52.476Z,32.47
2018-03-06T11:56:21.825Z,27.47
2018-03-06T11:58:51.607Z,27.50
2018-03-06T12:01:20.721Z,28.80
2018-03-06T12:03:49.680Z,26.30
2018-03-06T12:06:18.644Z,32.10
2018-03-06T12:08:48.400Z,29.03
2018-03-06T12:11:18.499Z,27.57
2018-03-06T12:13:47.483Z,32.27
2018-03-06T12:16:16.586Z,32.10
2018-03-06T12:18:46.477Z,29.40
2018-03-06T12:21:15.409Z,30.07
2018-03-06T12:23:44.385Z,27.30
2018-03-06T12:26:13.792Z,29.90
2018-03-06T12:28:42.764Z,27.47
2018-03-06T12:31:11.819Z,32.77
2018-03-06T12:33:40.864Z,27.03
2018-03-06T12:36:09.845Z,28.40
2018-03-06T12:38:38.820Z,30.27
2018-03-06T12:41:08.607Z,30.70
2018-03-06T12:43:37.640Z,30.53
2018-03-06T12:46:06.628Z,33.23
2018-03-06T12:48:35.607Z,32.20
2018-03-06T12:51:04.999Z,29.57
2018-03-06T12:53:33.955Z,31.97
2018-03-06T12:56:02.943Z,28.83
2018-03-06T12:58:32.683Z,30.50
2018-03-06T13:01:01.702Z,35.03
2018-03-06T13:03:30.796Z,30.80
2018-03-06T13:05:59.978Z,29.97
2018-03-06T13:08:28.976Z,34.87
2018-03-06T13:10:57.981Z,36.07
2018-03-06T13:13:27.788Z,34.03
2018-03-06T13:15:56.818Z,35.67
2018-03-06T13:18:25.790Z,35.13
2018-03-06T13:20:54.830Z,34.63
2018-03-06T13:23:23.798Z,38.40
2018-03-06T13:25:52.745Z,33.67
2018-03-06T13:28:22.801Z,33.33
2018-03-06T13:30:52.275Z,33.07
2018-03-06T13:33:21.697Z,33.47
2018-03-06T13:35:51.432Z,45.50
2018-03-06T13:38:20.812Z,32.67
2018-03-06T13:40:49.794Z,32.43
2018-03-06T13:43:18.788Z,35.47
2018-03-06T13:45:47.814Z,32.40
2018-03-06T13:48:16.850Z,31.27
2018-03-06T13:50:46.217Z,31.70
2018-03-06T13:53:15.234Z,35.27
2018-03-06T13:55:44.271Z,34.17
2018-03-06T13:58:13.273Z,32.93
2018-03-06T14:00:42.652Z,36.40
2018-03-06T14:03:12.365Z,33.23
2018-03-06T14:05:41.356Z,33.60
2018-03-06T14:08:10.307Z,38.10
2018-03-06T14:10:39.270Z,33.27
2018-03-06T14:13:08.272Z,33.83
2018-03-06T14:15:37.671Z,41.33
2018-03-06T14:18:06.643Z,37.20
2018-03-06T14:20:35.700Z,44.40
2018-03-06T14:23:04.720Z,34.30
2018-03-06T14:25:33.693Z,38.33
2018-03-06T14:28:02.731Z,38.80
2018-03-06T14:30:32.455Z,42.03
2018-03-06T14:33:02.958Z,38.70
2018-03-06T14:35:32.325Z,42.23
2018-03-06T14:38:02.352Z,45.53
2018-03-06T14:40:32.069Z,46.77
2018-03-06T14:43:01.050Z,46.80
2018-03-06T14:45:30.763Z,35.30
2018-03-06T14:48:00.114Z,38.03
2018-03-06T14:50:29.837Z,39.13
2018-03-06T14:52:59.355Z,37.53
2018-03-06T14:55:28.852Z,40.73
2018-03-06T14:57:58.229Z,38.77
2018-03-06T15:00:28.010Z,34.57
2018-03-06T15:02:56.960Z,41.07
2018-03-06T15:05:26.698Z,43.13
2018-03-06T15:07:55.774Z,44.37
2018-03-06T15:10:25.568Z,38.90
2018-03-06T15:12:55.310Z,40.50
2018-03-06T15:15:24.322Z,41.83
2018-03-06T15:17:53.281Z,42.03
2018-03-06T15:20:22.237Z,41.33
2018-03-06T15:22:51.637Z,45.23
2018-03-06T15:25:20.618Z,42.67
2018-03-06T15:27:50.433Z,42.80
2018-03-06T15:30:19.440Z,41.30
2018-03-06T15:32:48.812Z,46.80
2018-03-06T15:35:18.642Z,40.33
2018-03-06T15:37:47.642Z,41.43
2018-03-06T15:40:16.613Z,39.63
2018-03-06T15:42:45.682Z,40.63
2018-03-06T15:45:15.928Z,37.50
2018-03-06T15:47:46.195Z,47.63
2018-03-06T15:50:15.549Z,43.97
2018-03-06T15:52:45.696Z,36.87
2018-03-06T15:55:15.460Z,43.83
2018-03-06T15:57:44.535Z,45.80
2018-03-06T16:00:15.247Z,45.10
2018-03-06T16:02:44.345Z,47.77
2018-03-06T16:05:13.725Z,42.50
2018-03-06T16:07:43.118Z,46.70
2018-03-06T16:10:12.509Z,48.77
2018-03-06T16:12:41.895Z,46.30
2018-03-06T16:15:10.901Z,43.27
2018-03-06T16:17:44.569Z,47.10
2018-03-06T16:20:13.567Z,45.87
2018-03-06T16:22:44.319Z,40.87
2018-03-06T16:25:14.059Z,49.07
2018-03-06T16:27:43.143Z,42.47
2018-03-06T16:30:12.775Z,43.83
2018-03-06T16:32:43.657Z,52.63
2018-03-06T16:35:15.461Z,47.60
2018-03-06T16:37:45.202Z,46.50
2018-03-06T16:40:14.599Z,49.83
2018-03-06T16:42:43.570Z,42.07
2018-03-06T16:45:12.986Z,43.10
2018-03-06T16:47:42.073Z,47.20
2018-03-06T16:50:11.891Z,53.20
2018-03-06T16:52:43.238Z,49.53
2018-03-06T16:55:13.753Z,46.57
2018-03-06T16:57:43.575Z,48.80
2018-03-06T17:00:18.747Z,47.80
2018-03-06T17:02:47.711Z,52.13
2018-03-06T17:05:17.509Z,49.10
2018-03-06T17:07:47.833Z,45.73
2018-03-06T17:10:17.233Z,53.20
2018-03-06T17:12:46.226Z,49.17
2018-03-06T17:15:15.613Z,50.87
2018-03-06T17:17:45.656Z,50.53
2018-03-06T17:20:14.684Z,53.20
2018-03-06T17:22:43.676Z,48.40
2018-03-06T17:25:16.042Z,52.97
2018-03-06T17:27:46.955Z,49.67
2018-03-06T17:30:16.337Z,50.50
2018-03-06T17:32:45.824Z,55.63
2018-03-06T17:35:15.216Z,52.83
2018-03-06T17:37:45.398Z,59.07
2018-03-06T17:40:15.377Z,55.33
2018-03-06T17:42:44.763Z,51.50
2018-03-06T17:45:15.130Z,56.63
2018-03-06T17:47:44.115Z,61.57
2018-03-06T17:50:20.716Z,51.70
2018-03-06T17:52:50.518Z,54.33
2018-03-06T17:55:20.265Z,52.60
2018-03-06T17:57:50.078Z,56.20
2018-03-06T18:00:19.043Z,50.80
2018-03-06T18:02:48.430Z,57.37
2018-03-06T18:05:17.430Z,53.90
2018-03-06T18:07:54.663Z,61.63
2018-03-06T18:10:25.217Z,54.40
2018-03-06T18:12:54.227Z,56.97
2018-03-06T18:15:23.200Z,59.47
2018-03-06T18:17:52.235Z,53.47
2018-03-06T18:20:32.190Z,49.93
2018-03-06T18:23:03.333Z,57.13
2018-03-06T18:25:39.361Z,56.03
2018-03-06T18:28:08.548Z,57.53
2018-03-06T18:30:44.009Z,58.67
2018-03-06T18:33:13.003Z,50.97
2018-03-06T18:35:42.721Z,58.77
2018-03-06T18:38:11.805Z,56.07
2018-03-06T18:40:40.858Z,56.20
2018-03-06T18:43:09.836Z,54.63
2018-03-06T18:45:39.692Z,62.07
2018-03-06T18:48:09.539Z,56.60
2018-03-06T18:50:52.439Z,51.73
2018-03-06T18:53:22.496Z,60.07
2018-03-06T18:55:52.326Z,56.77
2018-03-06T18:58:21.748Z,52.70
2018-03-06T19:01:06.879Z,60.87
2018-03-06T19:17:08.955Z,58.20
2018-03-06T19:19:38.163Z,62.07
2018-03-06T19:22:07.159Z,62.73
2018-03-06T19:24:36.214Z,59.10
2018-03-06T19:27:06.719Z,56.17
2018-03-06T19:29:36.448Z,54.13
2018-03-06T19:32:06.566Z,55.73
2018-03-06T19:34:35.553Z,66.00
2018-03-06T19:37:04.676Z,65.07
2018-03-06T19:39:33.822Z,61.50
2018-03-06T19:42:02.865Z,64.87
2018-03-06T19:44:32.368Z,64.43
2018-03-06T19:47:01.707Z,59.73
2018-03-06T19:49:35.928Z,58.07
2018-03-06T19:52:06.103Z,62.03
2018-03-06T19:54:35.133Z,59.13
2018-03-06T19:57:04.225Z,62.90
2018-03-06T19:59:39.033Z,51.10
2018-03-06T20:02:09.729Z,65.40
2018-03-06T20:04:38.797Z,63.33
2018-03-06T20:07:08.894Z,59.10
2018-03-06T20:09:42.336Z,50.87
2018-03-06T20:12:12.282Z,62.40
2018-03-06T20:14:47.060Z,61.83
2018-03-06T20:17:16.855Z,55.10
2018-03-06T20:19:46.664Z,70.00
2018-03-06T20:22:16.842Z,68.47
2018-03-06T20:24:52.350Z,60.70
2018-03-06T20:27:22.230Z,69.93
2018-03-06T20:29:51.289Z,64.40
2018-03-06T20:32:28.127Z,66.10
2018-03-06T20:34:59.754Z,66.50
2018-03-06T20:37:28.826Z,62.73
2018-03-06T20:40:04.725Z,65.30
2018-03-06T20:42:33.839Z,64.30
2018-03-06T20:45:03.603Z,67.10
2018-03-06T20:47:32.630Z,65.77
2018-03-06T20:50:01.958Z,62.40
2018-03-06T20:52:46.630Z,68.20
2018-03-06T20:55:16.171Z,64.70
2018-03-06T20:57:45.367Z,66.63
2018-03-06T21:00:14.453Z,66.17
2018-03-06T21:02:43.481Z,68.53
2018-03-06T21:05:12.925Z,70.17
2018-03-06T21:07:41.961Z,65.07
2018-03-06T21:10:11.694Z,76.17
2018-03-06T21:12:41.509Z,70.73
2018-03-06T21:15:12.237Z,64.47
2018-03-06T21:17:41.278Z,74.40
2018-03-06T21:20:10.317Z,67.80
2018-03-06T21:22:40.117Z,72.57
2018-03-06T21:25:09.126Z,79.63
2018-03-06T21:27:38.903Z,68.77
2018-03-06T21:30:08.679Z,88.23
2018-03-06T21:32:38.444Z,78.43
2018-03-06T21:35:08.282Z,73.03
2018-03-06T21:37:37.701Z,69.87
2018-03-06T21:40:06.980Z,74.43
2018-03-06T21:42:36.783Z,68.40
2018-03-06T21:45:05.807Z,69.10
2018-03-06T21:47:34.788Z,76.77
2018-03-06T21:50:03.866Z,71.43
2018-03-06T21:52:33.259Z,73.83
2018-03-06T21:55:02.628Z,71.20
2018-03-06T21:57:31.606Z,69.20
2018-03-06T22:00:00.595Z,70.87
2018-03-06T22:02:29.575Z,69.77
2018-03-06T22:04:59.007Z,73.43
2018-03-06T22:07:28.033Z,71.03
2018-03-06T22:09:57.850Z,76.03
2018-03-06T22:12:27.589Z,73.43
2018-03-06T22:14:56.581Z,73.67
2018-03-06T22:17:25.575Z,69.00
2018-03-06T22:19:54.525Z,74.90
2018-03-06T22:22:24.252Z,78.10
2018-03-06T22:24:53.237Z,82.67
2018-03-06T22:27:22.959Z,71.07
2018-03-06T22:29:52.350Z,78.87
2018-03-06T22:32:21.310Z,75.30
2018-03-06T22:34:50.733Z,77.47
2018-03-06T22:37:19.742Z,79.47
2018-03-06T22:39:48.704Z,74.77
2018-03-06T22:42:17.876Z,75.67
2018-03-06T22:44:46.820Z,77.43
2018-03-06T22:47:15.781Z,71.30
2018-03-06T22:49:44.744Z,69.83
2018-03-06T22:52:13.710Z,78.23
2018-03-06T22:54:42.751Z,77.17
2018-03-06T22:57:12.068Z,70.27
2018-03-06T22:59:41.005Z,78.67
2018-03-06T23:02:09.962Z,73.17
2018-03-06T23:04:39.694Z,69.00
2018-03-06T23:07:08.677Z,75.70
2018-03-06T23:09:37.669Z,73.80
2018-03-06T23:12:06.635Z,71.93
2018-03-06T23:14:36.348Z,82.20
2018-03-06T23:17:06.293Z,77.00
2018-03-06T23:19:35.256Z,76.63
2018-03-06T23:22:04.298Z,69.03
2018-03-06T23:24:33.294Z,71.73
2018-03-06T23:27:02.289Z,78.10
2018-03-06T23:29:31.239Z,73.40
2018-03-06T23:32:01.001Z,69.83
2018-03-06T23:34:29.943Z,78.20
2018-03-06T23:36:59.659Z,72.53
2018-03-06T23:39:28.624Z,72.50
2018-03-06T23:41:58.371Z,79.37
2018-03-06T23:44:27.733Z,78.97
2018-03-06T23:46:57.484Z,65.90
2018-03-06T23:49:26.423Z,68.30
2018-03-06T23:51:55.489Z,72.17
2018-03-06T23:54:24.510Z,76.63
2018-03-06T23:56:53.471Z,78.97
2018-03-06T23:59:22.474Z,76.83
